Petersburg, ND (58272)

10:49 AM CST on December 21, 2014 (GMT -0600)
Grand Forks Air Force Base | Change Station
CLOSE
Current Station
Airport
Location: Grand Forks AFB,
Elevation: 912 ft
Nearby Weather Stations
Active Advisory: Special Statement

Elev 912 ft 47.96 °N, 97.40 °W | Updated 16 minutes ago

Mostly Cloudy
Mostly Cloudy
30 °F
Feels Like 20 °F
N
13
Wind Variable Wind from South

Today
High -- | Low -- °F
--% Chance of Precip.
Yesterday
High -- | Low -- °F
Precip. -- in
8:18 AM 4:41 PM
Waning Crescent, 0% visible
Pressure 29.67 in
Visibility 7.0 miles
Clouds Overcast 400 ft
Windchill 20 °F
Dew Point 30 °F
Humidity 100%
Rainfall 0.00 in
Snow Depth Not available.
UV 0 out of 12
Pollen .10 out of 12
Air Quality Not available.
Flu Activity Not available.
SPECI KRDR 211633Z AUTO 18011KT 7SM OVC004 M01/M01 A2967 RMK AO2

More Conditions Fewer Conditions

Pressure 29.67 in
Visibility 7.0 miles
Clouds Overcast 400 ft
Windchill 20 °F
Dew Point 30 °F
Humidity 100%
Rainfall 0.00 in
Snow Depth Not available.
UV 0 out of 12
Pollen .10 out of 12
Air Quality Not available.
Flu Activity Not available.
SPECI KRDR 211633Z AUTO 18011KT 7SM OVC004 M01/M01 A2967 RMK AO2

More Conditions Fewer Conditions

10-Day Weather Forecast

Almanac

Astronomy

Dec. 21, 2014 Rise Set
Actual Time
Civil Twilight
Nautical Twilight
Astronomical Twilight
Moon
Length of Visible Light
Length of Day
Tomorrow will be .
, % of the Moon is Illuminated

Today's Extremes

State Highs State Lows

Community

WunderPhotos

Upload Photos

1,779,433 photos uploaded!

WunderBlogs® & News

Nearby

Air Quality

  Air Quality AQ Index Pollutant
Not available.

Snow Depth

Station Depth Elevation

Earthquake Activity

City Distance Mag. Time & Date
Minimum magnitude displayed is 2.5.

Coastal Water Temperatures

Place Temperature

Nearby Weather Stations